Dudinka, Russia
Current Conditions -  °F | °C
As of 9:00 PM on Friday 31 Oct 2014 (Local Time) from USNN Reporting Station
Overcast Overcast  
Wind Chill: 24°   Ceiling: 700
Heat Index: 34°   Visibility: 6mi
Dew Point: 34°   Wind: 13mph
Humidity: 100%   Direction: 210°SSW
Pressure: 29.83"   Gusts: NA
Location:  69.41°N, 86.18°E
Report Text: USNN 311400Z 21006MPS 9999 OVC007 01/01 Q1010 NOSIG RMK QFE7522119//60
Loading
Personal Weather Stations






























Interactive Weather Map
Tropical Storm Tracking
New forecast layout! Learn more

10-Day Weather Forecast

Advertisements
Track Severe Weather on mobile